createdAt,value
2022-10-14T08:25:46.773Z,32.80
2022-10-14T09:56:10.223Z,25.07
2022-10-14T09:57:42.411Z,25.27
2022-10-14T09:59:25.322Z,24.00
2022-10-14T10:01:02.528Z,23.67
2022-10-14T10:02:46.891Z,24.00
2022-10-14T10:04:36.493Z,21.97
2022-10-14T10:06:13.542Z,24.43
2022-10-14T10:08:18.966Z,23.53
2022-10-14T10:09:57.245Z,22.33
2022-10-14T10:11:38.444Z,22.30
2022-10-14T10:13:40.231Z,22.63
2022-10-14T10:15:21.463Z,24.00
2022-10-14T10:17:09.702Z,24.03
2022-10-14T10:18:43.211Z,22.63
2022-10-14T10:20:16.644Z,22.97
2022-10-14T10:21:48.930Z,22.97
2022-10-14T10:23:25.579Z,21.93
2022-10-14T10:25:03.695Z,22.47
2022-10-14T10:26:35.954Z,20.83
2022-10-14T10:28:20.282Z,21.47
2022-10-14T10:29:55.855Z,22.63
2022-10-14T10:31:43.073Z,21.97
2022-10-14T10:33:27.443Z,21.43
2022-10-14T10:35:20.795Z,24.23
2022-10-14T10:37:08.528Z,22.13
2022-10-14T10:39:03.864Z,22.93
2022-10-14T10:40:55.531Z,22.77
2022-10-14T10:42:42.554Z,23.27
2022-10-14T10:44:40.564Z,24.57
2022-10-14T10:47:07.533Z,24.37
2022-10-14T10:48:51.356Z,23.20
2022-10-14T10:50:48.582Z,24.17
2022-10-14T10:52:56.507Z,23.43
2022-10-14T10:55:10.399Z,24.17
2022-10-14T10:57:24.862Z,25.53
2022-10-14T10:59:30.312Z,26.00
2022-10-14T11:01:44.584Z,23.47
2022-10-14T11:03:36.211Z,23.13
2022-10-14T11:05:33.183Z,24.20
2022-10-14T11:08:04.321Z,24.43
2022-10-14T11:10:29.109Z,23.97
2022-10-14T11:12:23.369Z,22.63
2022-10-14T11:14:46.325Z,20.80
2022-10-14T11:16:58.952Z,22.63
2022-10-14T11:19:09.700Z,22.20
2022-10-14T11:21:25.907Z,23.20
2022-10-14T11:23:20.290Z,24.37
2022-10-14T11:25:22.847Z,24.17
2022-10-14T11:27:27.808Z,24.23
2022-10-14T11:29:52.336Z,25.80
2022-10-14T11:31:39.687Z,26.37
2022-10-14T11:33:37.444Z,22.30
2022-10-14T11:36:02.594Z,22.70
2022-10-14T11:37:58.192Z,22.67
2022-10-14T11:40:00.840Z,23.47
2022-10-14T11:42:20.836Z,23.30
2022-10-14T11:44:05.276Z,25.30
2022-10-14T11:46:09.016Z,25.57
2022-10-14T11:47:46.892Z,25.10
2022-10-14T11:49:44.102Z,24.07
2022-10-14T11:51:38.531Z,24.57
2022-10-14T11:53:22.376Z,24.60
2022-10-14T11:55:09.654Z,22.07
2022-10-14T11:57:16.364Z,22.13
2022-10-14T11:58:52.274Z,23.37
2022-10-14T12:00:31.956Z,21.30
2022-10-14T12:02:19.556Z,20.70
2022-10-14T12:04:06.378Z,20.83
2022-10-14T12:05:52.876Z,21.47
2022-10-14T12:07:39.283Z,21.83
2022-10-14T12:09:39.570Z,21.57
2022-10-14T12:11:50.495Z,20.60
2022-10-14T12:14:03.507Z,19.07
2022-10-14T12:15:42.792Z,20.67
2022-10-14T12:17:36.331Z,19.63
2022-10-14T12:19:13.211Z,18.63
2022-10-14T12:21:08.625Z,18.97
2022-10-14T12:22:41.518Z,19.67
2022-10-14T12:24:19.682Z,20.30
2022-10-14T12:26:20.863Z,21.77
2022-10-14T12:27:55.474Z,22.87
2022-10-14T12:29:41.047Z,21.77
2022-10-14T12:31:39.506Z,22.07
2022-10-14T12:33:22.342Z,21.60
2022-10-14T12:35:01.425Z,21.87
2022-10-14T12:38:12.941Z,21.43
2022-10-14T12:39:45.074Z,22.30
2022-10-14T12:41:36.758Z,21.57
2022-10-14T12:43:26.444Z,21.43
2022-10-14T12:45:03.303Z,20.77
2022-10-14T12:46:49.006Z,19.40
2022-10-14T12:48:37.577Z,19.63
2022-10-14T12:50:15.731Z,19.10
2022-10-14T12:52:26.269Z,20.80
2022-10-14T12:54:16.102Z,19.27
2022-10-14T12:55:56.741Z,19.47
2022-10-14T12:57:37.325Z,19.13
2022-10-14T12:59:32.224Z,21.93
2022-10-14T13:01:23.744Z,22.13
2022-10-14T13:03:03.079Z,24.00
2022-10-14T13:04:36.155Z,25.40
2022-10-14T13:06:36.472Z,25.77
2022-10-14T13:08:24.306Z,23.90
2022-10-14T13:10:28.228Z,22.80
2022-10-14T13:12:00.356Z,22.57
2022-10-14T13:13:39.008Z,21.17
2022-10-14T13:15:36.580Z,21.20
2022-10-14T13:17:45.317Z,21.03
2022-10-14T13:19:41.137Z,20.90
2022-10-14T13:21:39.045Z,18.80
2022-10-14T13:23:31.545Z,18.83
2022-10-14T13:25:17.785Z,17.67
2022-10-14T13:26:55.861Z,17.63
2022-10-14T13:28:52.890Z,19.37
2022-10-14T13:30:37.676Z,19.80
2022-10-14T13:32:49.687Z,19.70
2022-10-14T13:34:43.907Z,19.30
2022-10-14T13:36:22.570Z,18.13
2022-10-14T13:38:06.498Z,18.73
2022-10-14T13:39:38.836Z,16.87
2022-10-14T13:41:29.837Z,18.90
2022-10-14T13:43:34.623Z,17.93
2022-10-14T13:45:13.894Z,18.63
2022-10-14T13:46:50.008Z,20.27
2022-10-14T13:48:40.735Z,18.73
2022-10-14T13:50:15.764Z,18.77
2022-10-14T13:51:57.304Z,19.53
2022-10-14T13:53:29.949Z,20.10
2022-10-14T13:55:17.501Z,18.83
2022-10-14T13:57:31.540Z,17.10
2022-10-14T13:58:51.605Z,18.07
2022-10-14T14:00:42.785Z,17.23
2022-10-14T14:02:29.936Z,18.87
2022-10-14T14:04:03.211Z,17.93
2022-10-14T14:05:36.540Z,18.80
2022-10-14T14:07:47.701Z,19.07
2022-10-14T14:09:23.083Z,18.43
2022-10-14T14:11:17.995Z,17.37
2022-10-14T14:12:51.972Z,19.60
2022-10-14T14:14:37.430Z,20.73
2022-10-14T14:16:24.289Z,22.00
2022-10-14T14:17:56.848Z,20.87
2022-10-14T14:19:38.246Z,20.07
2022-10-14T14:21:13.465Z,20.70
2022-10-14T14:22:46.076Z,20.73
2022-10-14T14:24:25.647Z,20.60
2022-10-14T14:26:18.426Z,22.03
2022-10-14T14:28:02.188Z,20.70
2022-10-14T14:29:35.831Z,19.43
2022-10-14T14:31:42.492Z,19.60
2022-10-14T14:33:31.309Z,20.33
2022-10-14T14:35:12.066Z,20.93
2022-10-14T14:36:55.764Z,20.30
2022-10-14T14:38:38.746Z,20.67
2022-10-14T14:40:25.871Z,22.43
2022-10-14T14:42:01.250Z,22.77
2022-10-14T14:43:38.455Z,25.03
2022-10-14T14:45:25.499Z,25.30
2022-10-14T14:47:03.809Z,26.23
2022-10-14T14:48:49.770Z,26.10
2022-10-14T14:50:42.861Z,26.93
2022-10-14T14:52:15.634Z,27.67
2022-10-14T14:53:56.183Z,26.07
2022-10-14T14:55:38.827Z,27.00
2022-10-14T14:57:20.184Z,27.37
2022-10-14T14:58:58.211Z,26.50
2022-10-14T15:00:30.765Z,26.33
2022-10-14T15:02:15.345Z,26.63
2022-10-14T15:04:11.893Z,25.77
2022-10-14T15:06:01.336Z,26.47
2022-10-14T15:07:35.984Z,25.83
2022-10-14T15:09:14.923Z,27.00
2022-10-14T15:10:50.391Z,27.30
2022-10-14T15:12:25.917Z,28.20
2022-10-14T15:14:00.275Z,29.67
2022-10-14T15:15:34.224Z,30.33
2022-10-14T15:17:27.694Z,33.63
2022-10-14T15:19:37.431Z,32.57
2022-10-14T15:21:19.320Z,36.73
2022-10-14T15:22:52.769Z,38.17
2022-10-14T15:24:24.934Z,40.77
2022-10-14T15:26:00.639Z,41.83
2022-10-14T15:27:35.632Z,41.63
2022-10-14T15:29:08.122Z,40.87
2022-10-14T15:30:40.334Z,41.53
2022-10-14T15:32:15.358Z,41.97
2022-10-14T15:33:49.435Z,38.40
2022-10-14T15:35:22.982Z,39.17
2022-10-14T15:36:55.460Z,35.73
2022-10-14T15:38:28.755Z,36.13
2022-10-14T15:40:14.318Z,37.00
2022-10-14T15:41:47.464Z,37.20
2022-10-14T15:43:26.634Z,39.57
2022-10-14T15:44:58.899Z,37.97
2022-10-14T15:46:49.761Z,36.97
2022-10-14T15:48:25.001Z,35.33
2022-10-14T15:49:57.612Z,36.07
2022-10-14T15:51:31.459Z,34.40
2022-10-14T15:53:04.115Z,36.80
2022-10-14T15:54:36.633Z,39.00
2022-10-14T15:56:10.346Z,42.13
2022-10-14T15:57:42.531Z,49.40
2022-10-14T15:59:16.286Z,45.70
2022-10-14T16:00:48.745Z,46.00
2022-10-14T16:02:35.883Z,47.07
2022-10-14T16:04:22.201Z,50.73
2022-10-14T16:05:54.781Z,50.23
2022-10-14T16:07:27.182Z,48.00
2022-10-14T16:08:59.671Z,45.70
2022-10-14T16:10:34.329Z,42.37
2022-10-14T16:12:14.797Z,41.43
2022-10-14T16:13:47.020Z,40.77
2022-10-14T16:15:49.378Z,40.13
2022-10-14T16:17:22.134Z,45.73
2022-10-14T16:18:54.435Z,44.73
2022-10-14T16:20:35.787Z,44.90
2022-10-14T16:22:09.543Z,46.60
2022-10-14T16:23:43.480Z,48.63
2022-10-14T16:25:44.964Z,50.50
2022-10-14T16:27:17.199Z,54.00
2022-10-14T16:28:49.711Z,60.80
2022-10-14T16:30:21.968Z,64.67
2022-10-14T16:31:55.352Z,70.77
2022-10-14T16:33:27.774Z,70.80
2022-10-14T16:35:00.395Z,56.50
2022-10-14T16:36:32.688Z,49.17
2022-10-14T16:38:04.899Z,52.63
2022-10-14T16:39:38.772Z,54.73
2022-10-14T16:41:12.435Z,53.90
2022-10-14T16:42:44.877Z,50.00
2022-10-14T16:44:27.638Z,50.83
2022-10-14T16:46:03.895Z,50.50
2022-10-14T16:47:36.480Z,51.77
2022-10-14T16:49:09.111Z,51.47
2022-10-14T16:50:41.332Z,52.33
2022-10-14T16:52:15.381Z,47.73
2022-10-14T16:53:49.044Z,51.20
2022-10-14T16:55:23.180Z,42.83
2022-10-14T16:56:56.751Z,54.50
2022-10-14T16:58:28.992Z,55.40
2022-10-14T17:00:01.481Z,61.30
2022-10-14T17:01:33.938Z,60.17
2022-10-14T17:03:06.180Z,66.57
2022-10-14T17:04:39.325Z,59.13
2022-10-14T17:06:12.139Z,67.60
2022-10-14T17:07:44.596Z,71.07
2022-10-14T17:09:18.754Z,68.33
2022-10-14T17:10:50.946Z,70.53
2022-10-14T17:12:23.746Z,63.40
2022-10-14T17:13:58.491Z,61.33
2022-10-14T17:15:30.651Z,62.97
2022-10-14T17:17:02.798Z,61.73
2022-10-14T17:18:36.081Z,65.33
2022-10-14T17:20:09.438Z,70.17
2022-10-14T17:21:42.024Z,72.17
2022-10-14T17:23:14.221Z,82.40
2022-10-14T17:24:50.849Z,83.33
2022-10-14T17:26:23.627Z,77.13
2022-10-14T17:27:55.801Z,75.13
2022-10-14T17:29:29.433Z,79.30
2022-10-14T17:31:01.768Z,80.57
2022-10-14T17:32:34.588Z,80.00
2022-10-14T17:34:06.832Z,86.20
2022-10-14T17:35:39.164Z,93.50
2022-10-14T17:37:11.582Z,95.13
2022-10-14T17:38:44.536Z,81.57
2022-10-14T17:40:16.947Z,72.67
2022-10-14T17:41:49.103Z,63.50
2022-10-14T17:43:21.808Z,64.30
2022-10-14T17:44:54.044Z,62.33
2022-10-14T17:46:29.728Z,64.23
2022-10-14T17:48:01.884Z,77.17
2022-10-14T17:49:34.313Z,71.97
2022-10-14T17:51:06.802Z,70.73
2022-10-14T17:52:39.088Z,73.50
2022-10-14T17:54:13.030Z,64.83
2022-10-14T17:55:45.766Z,85.00
2022-10-14T17:57:18.359Z,92.33
2022-10-14T17:58:57.008Z,88.20
2022-10-14T18:00:29.651Z,93.47
2022-10-14T18:02:03.449Z,98.87
2022-10-14T18:03:40.980Z,99.30
2022-10-14T18:05:13.762Z,111.50
2022-10-14T18:06:46.955Z,130.53
2022-10-14T18:08:19.434Z,129.93
2022-10-14T18:09:51.665Z,138.63
2022-10-14T18:11:25.508Z,134.37
2022-10-14T18:12:58.074Z,165.70
2022-10-14T18:14:30.881Z,196.53
2022-10-14T18:16:14.292Z,160.07
2022-10-14T18:17:46.740Z,144.57
2022-10-14T18:19:19.601Z,137.47
2022-10-14T18:20:57.021Z,130.60
2022-10-14T18:22:29.774Z,88.57
2022-10-14T18:24:27.671Z,90.80
2022-10-14T18:26:08.261Z,85.57
2022-10-14T18:27:43.844Z,70.70
2022-10-14T18:29:16.074Z,75.87
2022-10-14T18:30:48.284Z,86.97
2022-10-14T18:32:20.854Z,69.63
2022-10-14T18:33:55.788Z,72.97
2022-10-14T18:35:27.997Z,72.33
2022-10-14T18:37:00.356Z,72.13
2022-10-14T18:38:34.220Z,74.00
2022-10-14T18:40:07.183Z,68.80
2022-10-14T18:41:39.703Z,71.03
2022-10-14T18:43:11.854Z,60.57
2022-10-14T18:44:44.223Z,59.83
2022-10-14T18:46:20.888Z,66.57
2022-10-14T18:47:54.431Z,63.40
2022-10-14T18:49:26.908Z,62.27
2022-10-14T18:51:01.052Z,60.10
2022-10-14T18:52:33.809Z,61.07
2022-10-14T18:54:15.452Z,56.23
2022-10-14T18:55:47.629Z,53.47
2022-10-14T18:57:21.111Z,57.87
2022-10-14T18:59:07.085Z,62.50
2022-10-14T19:00:39.497Z,61.27
2022-10-14T19:02:14.551Z,58.73
2022-10-14T19:03:47.416Z,57.83
2022-10-14T19:05:19.997Z,80.47
2022-10-14T19:06:52.522Z,70.87
2022-10-14T19:08:25.577Z,73.37
2022-10-14T19:09:58.094Z,81.70
2022-10-14T19:11:32.846Z,71.63
2022-10-14T19:13:05.808Z,63.20
2022-10-14T19:14:38.238Z,66.67
2022-10-14T19:16:18.347Z,68.17
2022-10-14T19:17:54.628Z,68.77
2022-10-14T19:19:27.072Z,67.27
2022-10-14T19:21:09.636Z,67.67
2022-10-14T19:22:44.833Z,61.80
2022-10-14T19:24:18.327Z,62.33
2022-10-14T19:25:50.539Z,53.97
2022-10-14T19:27:23.164Z,54.80
2022-10-14T19:28:58.315Z,58.23
2022-10-14T19:30:30.579Z,56.60
2022-10-14T19:32:03.011Z,62.80
2022-10-14T19:33:41.692Z,61.50
2022-10-14T19:35:14.098Z,58.60
2022-10-14T19:36:46.404Z,63.33
2022-10-14T19:38:19.023Z,59.03
2022-10-14T19:39:51.157Z,60.27
2022-10-14T19:41:29.805Z,60.17
2022-10-14T19:43:02.004Z,61.13
2022-10-14T19:44:34.268Z,55.57
2022-10-14T19:46:11.763Z,60.63
2022-10-14T19:47:44.113Z,59.03
2022-10-14T19:49:16.715Z,55.03
2022-10-14T19:50:50.460Z,56.10
2022-10-14T19:52:22.592Z,55.60
2022-10-14T19:53:56.660Z,54.60
2022-10-14T19:55:29.274Z,57.07
2022-10-14T19:57:01.398Z,55.87
2022-10-14T19:58:34.122Z,55.57
2022-10-14T20:00:07.500Z,56.17
2022-10-14T20:01:39.812Z,55.57
2022-10-14T20:03:13.343Z,56.90
2022-10-14T20:04:45.536Z,56.77
2022-10-14T20:06:19.209Z,58.63
2022-10-14T20:07:53.858Z,58.40
2022-10-14T20:09:26.001Z,59.20
2022-10-14T20:11:05.920Z,60.20
2022-10-14T20:12:38.807Z,61.17
2022-10-14T20:14:10.955Z,61.27
2022-10-14T20:15:43.170Z,62.07
2022-10-14T20:17:15.535Z,62.10
2022-10-14T20:18:48.258Z,61.80
2022-10-14T20:20:20.407Z,64.67
2022-10-14T20:21:52.859Z,59.10
2022-10-14T20:23:25.793Z,64.93
2022-10-14T20:24:58.371Z,64.00
2022-10-14T20:26:30.873Z,62.50
2022-10-14T20:28:03.324Z,64.33
2022-10-14T20:29:36.772Z,81.67
2022-10-14T20:31:13.179Z,65.00
2022-10-14T20:32:45.615Z,93.77
2022-10-14T20:34:18.284Z,67.73
2022-10-14T20:36:20.319Z,71.70
2022-10-14T20:37:53.169Z,66.60
2022-10-14T20:39:25.505Z,69.23
2022-10-14T20:41:12.789Z,66.23
2022-10-14T20:42:45.130Z,70.40
2022-10-14T20:44:24.764Z,69.20
2022-10-14T20:45:57.363Z,69.27
2022-10-14T20:47:29.605Z,66.67
2022-10-14T20:49:01.798Z,69.53
2022-10-14T20:50:34.300Z,67.03
2022-10-14T20:52:09.538Z,71.57
2022-10-14T20:53:42.167Z,68.30
2022-10-14T20:55:14.572Z,70.60
2022-10-14T20:56:49.169Z,69.10
2022-10-14T20:58:21.424Z,70.30
2022-10-14T20:59:53.553Z,69.03
2022-10-14T21:01:29.383Z,69.53
2022-10-14T21:03:01.924Z,71.07
2022-10-14T21:04:34.097Z,69.47
2022-10-14T21:06:11.876Z,68.67
2022-10-14T21:07:44.110Z,69.80
2022-10-14T21:09:17.259Z,73.00
2022-10-14T21:10:50.330Z,70.63
2022-10-14T21:12:22.633Z,74.50
2022-10-14T21:13:59.442Z,72.40
2022-10-14T21:15:32.022Z,72.73
2022-10-14T21:17:04.407Z,70.10
2022-10-14T21:18:36.651Z,72.83
2022-10-14T21:20:09.254Z,72.03
2022-10-14T21:21:46.744Z,70.83
2022-10-14T21:23:19.051Z,72.20
2022-10-14T21:24:51.217Z,74.57
2022-10-14T21:26:24.080Z,73.60
2022-10-14T21:27:57.327Z,77.17
2022-10-14T21:29:29.579Z,72.43
2022-10-14T21:31:10.598Z,75.27
2022-10-14T21:32:42.804Z,75.70
2022-10-14T21:34:15.938Z,76.10
2022-10-14T21:35:48.053Z,75.60
2022-10-14T21:37:20.479Z,73.90
2022-10-14T21:38:56.841Z,77.97
2022-10-14T21:40:29.267Z,78.60
2022-10-14T21:42:01.546Z,78.13
2022-10-14T21:43:37.281Z,77.40
2022-10-14T21:45:09.967Z,78.00
2022-10-14T21:46:42.482Z,76.77
2022-10-14T21:48:14.598Z,79.20
2022-10-14T21:49:47.074Z,79.90
2022-10-14T21:51:19.347Z,80.60
2022-10-14T21:52:51.880Z,79.93
2022-10-14T21:54:26.223Z,82.20
2022-10-14T21:55:59.204Z,111.07
2022-10-14T21:57:31.446Z,87.10
2022-10-14T21:59:04.432Z,90.33
2022-10-14T22:00:36.624Z,93.27
2022-10-14T22:02:09.160Z,85.43
2022-10-14T22:03:42.182Z,87.07
2022-10-14T22:05:14.741Z,82.00
2022-10-14T22:06:46.930Z,92.03
2022-10-14T22:08:23.746Z,78.10
2022-10-14T22:09:55.883Z,80.83
2022-10-14T22:11:35.811Z,86.57
2022-10-14T22:13:10.165Z,94.07
2022-10-14T22:14:43.105Z,85.17
2022-10-14T22:16:16.995Z,87.40
2022-10-14T22:17:49.384Z,86.43
2022-10-14T22:19:21.558Z,109.73
2022-10-14T22:21:04.976Z,98.47
2022-10-14T22:22:37.398Z,91.87
2022-10-14T22:24:10.162Z,93.07
2022-10-14T22:25:42.541Z,84.67
2022-10-14T22:27:14.736Z,83.33
2022-10-14T22:28:47.785Z,83.53
2022-10-14T22:30:20.283Z,81.37
2022-10-14T22:31:52.431Z,82.10
2022-10-14T22:33:24.654Z,82.03
2022-10-14T22:34:56.823Z,82.30
2022-10-14T22:36:30.897Z,87.63
2022-10-14T22:38:03.013Z,86.90
2022-10-14T22:39:35.225Z,86.73
2022-10-14T22:41:09.334Z,85.00
2022-10-14T22:42:42.406Z,87.23
2022-10-14T22:44:14.789Z,104.10
2022-10-14T22:45:46.947Z,85.10
2022-10-14T22:47:19.052Z,99.93
2022-10-14T22:48:56.780Z,91.00
2022-10-14T22:50:54.498Z,92.10
2022-10-14T22:52:26.677Z,88.37
2022-10-14T22:53:59.761Z,86.97
2022-10-14T22:55:31.922Z,81.73
2022-10-14T22:57:04.185Z,81.40
2022-10-14T22:58:36.484Z,86.73
2022-10-14T23:00:09.712Z,78.77
2022-10-14T23:01:43.394Z,86.03
2022-10-14T23:03:15.768Z,83.00
2022-10-14T23:04:47.876Z,84.13
2022-10-14T23:06:20.660Z,80.50
2022-10-14T23:07:52.767Z,78.63
2022-10-14T23:09:25.401Z,78.27
2022-10-14T23:10:59.248Z,85.37
2022-10-14T23:12:31.643Z,71.83
2022-10-14T23:14:07.194Z,80.87
2022-10-14T23:15:39.579Z,78.13
2022-10-14T23:17:11.637Z,80.47
2022-10-14T23:18:45.570Z,79.07
2022-10-14T23:20:17.743Z,78.97
2022-10-14T23:21:49.873Z,81.83
2022-10-14T23:23:22.736Z,82.47
2022-10-14T23:24:55.141Z,82.67
2022-10-14T23:26:34.615Z,79.07
2022-10-14T23:28:06.777Z,77.93
2022-10-14T23:29:38.871Z,80.50
2022-10-14T23:31:15.361Z,80.90
2022-10-14T23:32:47.705Z,77.63
2022-10-14T23:34:19.975Z,77.77
2022-10-14T23:35:52.139Z,79.30
2022-10-14T23:37:25.140Z,78.60
2022-10-14T23:38:59.009Z,79.43
2022-10-14T23:40:31.577Z,84.77
2022-10-14T23:42:03.882Z,79.43
2022-10-14T23:43:36.380Z,76.80
2022-10-14T23:45:10.221Z,83.03
2022-10-14T23:46:42.466Z,81.20
2022-10-14T23:48:14.607Z,83.53
2022-10-14T23:49:46.943Z,83.63
2022-10-14T23:51:19.070Z,77.33
2022-10-14T23:52:51.192Z,75.27
2022-10-14T23:54:24.219Z,83.33
2022-10-14T23:55:57.500Z,83.17
2022-10-14T23:57:29.648Z,84.30
2022-10-14T23:59:02.035Z,79.63
